Language: 


Des rapports , des résumés tant et plus, au choix de chacun....


Données statistiques de la station
Quotidien Rapport Octobre 3, 2017 Unités:  Anglais    Métrique   les deux
« Précédent Jour
Suivant Jour »
Quotidien Hebdomadaire Mensuel Annuel Actuel
  Haut: Bas: Moyen:
Température: 64.9 °F 47.7 °F 54.9 °F
Pt de rosée: 57.2 °F 48.2 °F 50.7 °F
Humidité: 98 % 57 % 85 %
Vitesse du vent: 10.1 mph 0 mph 3 mph
Rafales: 10.7 mph - -
Vent:- - WSW
Pression: 30.3 in 30 in -
Précipitation: 0.08 in    
Historical Graphs
 
 
Données statistiques pour Octobre 3, 2017
Heure Température Point de rosée Pression Vent Vitesse du vent Refales Humidité Pluie (taux horaire)
00:02 54.9 °F 55.4 °F 30 in WSW 7.8 mph 7.8 mph 98 % 0.02 in
00:07 54.7 °F 55.4 °F 30 in WSW 7.8 mph 7.8 mph 98 % 0.02 in
00:12 54.7 °F 55.4 °F 30 in WSW 7.8 mph 7.8 mph 98 % 0.03 in
00:17 54.5 °F 55.4 °F 30 in WSW 7.8 mph 7.8 mph 98 % 0.03 in
00:22 54.3 °F 55.4 °F 30 in WSW 7.8 mph 7.8 mph 98 % 0.02 in
00:27 54.3 °F 55.4 °F 30 in WSW 7.8 mph 7.8 mph 98 % 0.03 in
00:37 54.1 °F 55.4 °F 30 in WSW 7.8 mph 7.8 mph 98 % 0.06 in
00:42 54.1 °F 55.4 °F 30 in SSW 2.5 mph 2.5 mph 98 % 0.06 in
00:47 54 °F 53.6 °F 30 in SSW 2.5 mph 2.5 mph 98 % 0.07 in
00:52 54 °F 53.6 °F 30 in SSW 2.5 mph 2.5 mph 98 % 0.07 in
00:57 53.8 °F 53.6 °F 30 in SSW 2.5 mph 2.5 mph 98 % 0.07 in
01:02 53.8 °F 53.6 °F 30 in SSW 2.5 mph 2.5 mph 98 % 0.07 in
01:07 53.6 °F 53.6 °F 30 in SSW 2.5 mph 2.5 mph 98 % 0.07 in
01:12 53.6 °F 53.6 °F 30 in SSW 2.5 mph 2.5 mph 98 % 0.06 in
01:17 53.6 °F 53.6 °F 30 in SSW 2.5 mph 2.5 mph 98 % 0.06 in
01:22 53.6 °F 53.6 °F 30 in SSW 2.5 mph 2.5 mph 98 % 0.06 in
01:27 53.6 °F 53.6 °F 30 in WSW 6 mph 6 mph 98 % 0.05 in
01:32 53.6 °F 53.6 °F 30 in WSW 6 mph 6 mph 98 % 0.03 in
01:37 53.6 °F 53.6 °F 30 in West 2.7 mph 6 mph 98 % 0.02 in
01:42 53.6 °F 53.6 °F 30 in WSW 3.6 mph 6 mph 98 % 0.02 in
01:47 53.6 °F 53.6 °F 30 in West 6 mph 6 mph 98 % 0.01 in
01:52 53.6 °F 53.6 °F 30 in WSW 4.7 mph 6 mph 98 % 0.01 in
01:57 53.6 °F 53.6 °F 30 in WSW 5.8 mph 6 mph 98 % 0.01 in
02:03 53.6 °F 53.6 °F 30 in WSW 6.7 mph 6.7 mph 98 % 0 in
02:08 53.6 °F 53.6 °F 30 in WSW 6.3 mph 6.7 mph 98 % 0 in
02:13 53.6 °F 53.6 °F 30 in West 6.5 mph 6.5 mph 98 % 0 in
02:18 53.4 °F 53.6 °F 30 in WSW 6 mph 6.5 mph 98 % 0 in
02:23 53.2 °F 53.6 °F 30 in WSW 6 mph 6.5 mph 98 % 0 in
02:28 53.1 °F 53.6 °F 30 in West 6 mph 6 mph 98 % 0 in
02:33 52.9 °F 53.6 °F 30 in Calm   6 mph 98 % 0 in
02:38 52.7 °F 53.6 °F 30 in West 4.9 mph 5.8 mph 98 % 0 in
02:43 52.5 °F 51.8 °F 30 in West 4.3 mph 5.8 mph 98 % 0 in
02:48 52.5 °F 51.8 °F 30 in West 4.3 mph 5.8 mph 98 % 0 in
02:53 52.2 °F 51.8 °F 30 in West 5.4 mph 5.4 mph 98 % 0 in
02:59 52 °F 51.8 °F 30 in West 5.4 mph 5.4 mph 98 % 0 in
03:04 51.8 °F 51.8 °F 30 in SW 2.9 mph 6.3 mph 98 % 0 in
03:09 51.6 °F 51.8 °F 30 in WSW 4.3 mph 6.3 mph 98 % 0 in
03:14 51.4 °F 51.8 °F 30 in Calm   4.3 mph 98 % 0 in
03:19 51.4 °F 51.8 °F 30 in WSW 4 mph 4.3 mph 98 % 0 in
03:24 51.1 °F 51.8 °F 30 in WSW 4 mph 4.3 mph 98 % 0 in
03:29 51.1 °F 51.8 °F 30 in Calm   4 mph 98 % 0 in
03:34 51.1 °F 51.8 °F 30 in Calm     98 % 0 in
03:39 51.1 °F 51.8 °F 30 in WSW 3.6 mph 3.6 mph 98 % 0 in
03:44 51.1 °F 51.8 °F 30 in WSW 3.6 mph 3.6 mph 98 % 0 in
03:49 50.7 °F 50 °F 30 in Calm   3.6 mph 98 % 0 in
03:54 50.7 °F 50 °F 30 in WSW 5.4 mph 5.4 mph 98 % 0 in
03:59 50.7 °F 50 °F 30 in WSW 4.3 mph 5.4 mph 98 % 0 in
04:04 50.7 °F 50 °F 30 in WNW 4.3 mph 5.4 mph 98 % 0 in
04:09 50.7 °F 50 °F 30 in WNW 4.3 mph 5.4 mph 98 % 0 in
04:14 50.5 °F 50 °F 30 in WSW 3.6 mph 4.3 mph 98 % 0 in
04:19 50.5 °F 50 °F 30 in West 4.3 mph 4.3 mph 98 % 0 in
04:24 50.5 °F 50 °F 30 in West 2.2 mph 4.3 mph 98 % 0 in
04:29 50.4 °F 50 °F 30 in West 2.2 mph 4 mph 98 % 0 in
04:34 50.4 °F 50 °F 30 in West 4.9 mph 4.9 mph 98 % 0 in
04:39 50.4 °F 50 °F 30 in West 4 mph 4.9 mph 98 % 0 in
04:45 50.2 °F 50 °F 30 in Calm   4.9 mph 98 % 0 in
04:50 50 °F 50 °F 30 in Calm   4 mph 98 % 0 in
04:55 50 °F 50 °F 30 in WSW 4 mph 4 mph 98 % 0 in
05:00 50 °F 50 °F 30 in West 5.4 mph 5.8 mph 98 % 0 in
05:05 50 °F 50 °F 30 in WSW 5.4 mph 5.8 mph 98 % 0 in
05:10 49.8 °F 50 °F 30 in WSW 3.6 mph 5.4 mph 98 % 0 in
05:16 49.8 °F 50 °F 30 in WSW 3.8 mph 4.3 mph 98 % 0 in
05:21 49.6 °F 50 °F 30 in Calm   3.8 mph 98 % 0 in
05:22 49.6 °F 50 °F 30 in Calm   3.8 mph 98 % 0 in
05:23 49.5 °F 50 °F 30 in Calm   3.8 mph 98 % 0 in
05:27 49.5 °F 50 °F 30 in Calm   4 mph 98 % 0 in
05:28 49.5 °F 50 °F 30 in Calm   4 mph 98 % 0 in
05:29 49.5 °F 50 °F 30 in WSW 3.4 mph 4 mph 98 % 0 in
05:34 49.5 °F 50 °F 30 in WSW 4 mph 4.3 mph 98 % 0 in
05:39 49.5 °F 50 °F 30 in WSW 4.7 mph 4.7 mph 98 % 0 in
05:44 49.3 °F 50 °F 30 in WSW 2.9 mph 5.4 mph 98 % 0 in
05:49 49.3 °F 50 °F 30 in WSW 4.7 mph 5.4 mph 98 % 0 in
05:54 49.1 °F 50 °F 30 in WSW 5.4 mph 5.4 mph 98 % 0 in
05:59 49.1 °F 50 °F 30 in WSW 3.4 mph 5.4 mph 98 % 0 in
06:04 48.9 °F 48.2 °F 30 in WSW 4.3 mph 5.4 mph 98 % 0 in
06:09 48.9 °F 48.2 °F 30 in West 3.4 mph 4.3 mph 98 % 0 in
06:15 48.9 °F 48.2 °F 30 in West 4.7 mph 4.7 mph 98 % 0 in
06:20 48.7 °F 48.2 °F 30 in Calm   4.7 mph 98 % 0 in
06:25 48.7 °F 48.2 °F 30 in Calm   4.3 mph 98 % 0 in
06:30 48.6 °F 48.2 °F 30 in Calm     98 % 0 in
06:35 48.6 °F 48.2 °F 30 in Calm     98 % 0 in
06:40 48.6 °F 48.2 °F 30 in WSW 3.8 mph 3.8 mph 98 % 0 in
06:45 48.4 °F 48.2 °F 30 in Calm   4.9 mph 98 % 0 in
06:50 48.4 °F 48.2 °F 30 in WSW 3.8 mph 4.9 mph 98 % 0 in
06:55 48.4 °F 48.2 °F 30 in Calm   3.8 mph 98 % 0 in
07:00 48.2 °F 48.2 °F 30 in West 4.3 mph 4.3 mph 98 % 0 in
07:05 48 °F 48.2 °F 30 in Calm   4.3 mph 98 % 0 in
07:11 48 °F 48.2 °F 30 in Calm   3.6 mph 98 % 0 in
07:16 48 °F 48.2 °F 30 in Calm   1.1 mph 98 % 0 in
07:17 48 °F 48.2 °F 30 in Calm     98 % 0 in
07:22 48 °F 48.2 °F 30 in Calm     98 % 0 in
07:27 48 °F 48.2 °F 30 in Calm     98 % 0 in
07:32 47.8 °F 48.2 °F 30 in Calm     98 % 0 in
07:37 47.8 °F 48.2 °F 30 in Calm     98 % 0 in
07:42 47.8 °F 48.2 °F 30 in Calm     98 % 0 in
07:47 47.7 °F 48.2 °F 30 in Calm     98 % 0 in
07:52 47.7 °F 48.2 °F 30 in Calm     98 % 0 in
07:57 47.7 °F 48.2 °F 30 in Calm     98 % 0 in
08:02 47.7 °F 48.2 °F 30.1 in Calm     98 % 0 in
08:07 47.7 °F 48.2 °F 30.1 in Calm   3.6 mph 98 % 0 in
08:12 47.7 °F 48.2 °F 30.1 in Calm   5.4 mph 98 % 0 in
08:17 48 °F 48.2 °F 30.1 in Calm   5.4 mph 98 % 0 in
08:22 48 °F 48.2 °F 30.1 in Calm     98 % 0 in
08:27 48 °F 48.2 °F 30.1 in Calm   4.3 mph 98 % 0 in
08:32 48 °F 48.2 °F 30.1 in WSW 1.1 mph 4.3 mph 98 % 0 in
08:37 48 °F 48.2 °F 30.1 in West 5.4 mph 5.4 mph 98 % 0 in
08:42 49.1 °F 50 °F 30.1 in West 4.9 mph 5.6 mph 98 % 0 in
08:47 49.5 °F 50 °F 30.1 in SW 5.6 mph 5.6 mph 98 % 0 in
08:52 49.5 °F 50 °F 30.1 in SW 5.6 mph 5.6 mph 98 % 0 in
08:53 49.5 °F 50 °F 30.1 in SW 5.6 mph 5.6 mph 98 % 0 in
08:58 50.2 °F 50 °F 30.1 in West 4.3 mph 5.6 mph 98 % 0 in
09:03 50.4 °F 50 °F 30.1 in WSW 2.9 mph 4.3 mph 98 % 0.01 in
09:08 50.7 °F 50 °F 30.1 in Calm   4.3 mph 98 % 0.01 in
09:13 50.7 °F 50 °F 30.1 in West 3.8 mph 5.8 mph 98 % 0.01 in
09:19 51.4 °F 51.8 °F 30.1 in WSW 3.4 mph 5.8 mph 98 % 0.01 in
09:24 51.8 °F 51.8 °F 30.1 in WSW 6.3 mph 6.3 mph 98 % 0.01 in
09:29 51.8 °F 51.8 °F 30.1 in WSW 5.6 mph 6.3 mph 98 % 0.01 in
09:34 51.8 °F 51.8 °F 30.1 in WSW 5.6 mph 6.3 mph 98 % 0.01 in
09:39 51.8 °F 51.8 °F 30.1 in WSW 6 mph 6.5 mph 98 % 0.01 in
09:44 53.2 °F 53.6 °F 30.1 in WSW 6 mph 6.5 mph 98 % 0.01 in
09:49 53.6 °F 53.6 °F 30.1 in WSW 5.6 mph 6 mph 98 % 0.01 in
09:54 53.6 °F 53.6 °F 30.1 in WSW 5.6 mph 6 mph 98 % 0.01 in
09:59 54.3 °F 55.4 °F 30.1 in WSW 5.6 mph 5.6 mph 98 % 0.01 in
10:04 54.3 °F 55.4 °F 30.1 in WSW 5.6 mph 5.6 mph 98 % 0 in
10:09 54.7 °F 55.4 °F 30.1 in WSW 7.8 mph 7.8 mph 98 % 0 in
10:15 54.7 °F 55.4 °F 30.1 in West 5.8 mph 7.8 mph 98 % 0 in
10:20 55.9 °F 55.4 °F 30.1 in South 2.9 mph 5.8 mph 97 % 0 in
10:25 55.9 °F 55.4 °F 30.1 in West 3.4 mph 5.8 mph 97 % 0 in
10:30 56.5 °F 55.4 °F 30.1 in West 10.1 mph 10.1 mph 96 % 0 in
10:35 56.5 °F 55.4 °F 30.1 in WSW 3.4 mph 10.1 mph 96 % 0 in
10:40 57.6 °F 57.2 °F 30.1 in West 2.7 mph 7.4 mph 95 % 0 in
10:45 57.6 °F 57.2 °F 30.1 in SSW 2.7 mph 6 mph 95 % 0 in
10:50 57.6 °F 57.2 °F 30.1 in SSW 2.7 mph 6 mph 95 % 0 in
10:55 58.6 °F 55.4 °F 30.1 in NW 5.8 mph 6 mph 91 % 0 in
11:00 58.6 °F 55.4 °F 30.2 in NW 5.8 mph 6 mph 91 % 0 in
11:10 58.1 °F 55.4 °F 30.2 in NW 5.8 mph 5.8 mph 87 % 0 in
11:15 58.1 °F 55.4 °F 30.2 in NW 5.6 mph 5.8 mph 87 % 0 in
11:20 58.1 °F 55.4 °F 30.2 in West 9.8 mph 9.8 mph 87 % 0 in
11:25 58.1 °F 55.4 °F 30.2 in West 6.7 mph 9.8 mph 87 % 0 in
11:30 59.2 °F 53.6 °F 30.2 in WNW 5.4 mph 6.7 mph 83 % 0 in
11:35 59.4 °F 55.4 °F 30.2 in West 7.6 mph 7.6 mph 83 % 0 in
11:40 60.3 °F 55.4 °F 30.2 in WSW 6.3 mph 7.6 mph 84 % 0 in
11:45 59.7 °F 53.6 °F 30.2 in WSW 6.3 mph 7.6 mph 80 % 0 in
11:50 59.7 °F 53.6 °F 30.2 in NNW 2.9 mph 9.8 mph 80 % 0 in
11:55 59.7 °F 53.6 °F 30.2 in WNW 9.8 mph 9.8 mph 80 % 0 in
12:01 59.7 °F 53.6 °F 30.2 in West 4.3 mph 9.8 mph 80 % 0 in
12:06 59.7 °F 53.6 °F 30.2 in NNE 4.3 mph 8.1 mph 80 % 0 in
12:11 59.7 °F 53.6 °F 30.2 in West 5.8 mph 5.8 mph 80 % 0 in
12:16 59.7 °F 53.6 °F 30.2 in West 6.5 mph 6.5 mph 80 % 0 in
12:21 59.7 °F 53.6 °F 30.2 in Calm   6.5 mph 80 % 0 in
12:26 59.7 °F 53.6 °F 30.2 in SW 4.9 mph 8.1 mph 80 % 0 in
12:31 60.3 °F 53.6 °F 30.2 in West 7.8 mph 8.1 mph 76 % 0 in
12:36 60.3 °F 53.6 °F 30.2 in North 2.9 mph 7.8 mph 76 % 0 in
12:41 61.2 °F 55.4 °F 30.2 in NW 1.1 mph 2.9 mph 78 % 0 in
12:46 61 °F 53.6 °F 30.2 in NW 1.1 mph 2.9 mph 76 % 0 in
12:51 61 °F 53.6 °F 30.2 in WNW 5.8 mph 5.8 mph 76 % 0 in
12:56 61 °F 53.6 °F 30.2 in WNW 8.5 mph 8.5 mph 76 % 0 in
13:01 61 °F 53.6 °F 30.2 in West 7.6 mph 8.5 mph 76 % 0 in
13:06 61 °F 53.6 °F 30.2 in West 7.6 mph 8.5 mph 76 % 0 in
13:11 60.3 °F 51.8 °F 30.2 in West 7.6 mph 7.6 mph 72 % 0 in
13:16 61.7 °F 53.6 °F 30.2 in Calm   7.6 mph 72 % 0 in
13:21 61.7 °F 53.6 °F 30.2 in West 5.6 mph 6.7 mph 72 % 0 in
13:22 61.7 °F 53.6 °F 30.2 in West 5.6 mph 6.7 mph 72 % 0 in
13:27 61.7 °F 53.6 °F 30.2 in West 7.6 mph 9.2 mph 72 % 0 in
13:32 64.8 °F 55.4 °F 30.2 in NW 5.8 mph 9.2 mph 69 % 0 in
13:37 64.8 °F 55.4 °F 30.2 in WNW 7.2 mph 8.1 mph 69 % 0 in
13:42 64.8 °F 55.4 °F 30.2 in NW 5.8 mph 8.1 mph 69 % 0 in
13:47 64.8 °F 55.4 °F 30.2 in West 6.3 mph 7.6 mph 69 % 0 in
13:52 64.8 °F 55.4 °F 30.2 in West 3.8 mph 8.7 mph 69 % 0 in
13:57 64.8 °F 55.4 °F 30.2 in NNE 5.6 mph 8.7 mph 69 % 0 in
14:02 64.8 °F 55.4 °F 30.2 in NNE 5.6 mph 8.7 mph 69 % 0 in
14:08 61.2 °F 50 °F 30.2 in NNW 3.6 mph 3.6 mph 64 % 0 in
14:13 61.2 °F 50 °F 30.2 in West 4.3 mph 4.3 mph 64 % 0 in
14:18 61.2 °F 50 °F 30.2 in West 5.8 mph 6 mph 64 % 0 in
14:23 61.2 °F 50 °F 30.2 in SW 3.6 mph 6 mph 64 % 0 in
14:28 61.2 °F 50 °F 30.2 in South 1.6 mph 9.8 mph 64 % 0 in
14:33 61.2 °F 50 °F 30.2 in West 1.3 mph 9.8 mph 67 % 0 in
14:38 61.2 °F 50 °F 30.2 in East 7.4 mph 7.4 mph 67 % 0 in
14:43 61.2 °F 50 °F 30.2 in WNW 5.8 mph 7.4 mph 67 % 0 in
14:48 61.2 °F 50 °F 30.2 in Calm   5.8 mph 67 % 0 in
14:53 61.2 °F 50 °F 30.2 in NW 4.9 mph 6.5 mph 67 % 0 in
14:58 61.2 °F 50 °F 30.2 in WNW 3.6 mph 6.5 mph 67 % 0 in
15:03 63.7 °F 53.6 °F 30.2 in South 7.4 mph 10.7 mph 67 % 0 in
15:08 63.7 °F 53.6 °F 30.2 in Calm   10.7 mph 67 % 0 in
15:13 61 °F 50 °F 30.2 in WSW 1.3 mph 6.5 mph 66 % 0 in
15:18 61 °F 50 °F 30.2 in West 4.3 mph 6.5 mph 66 % 0 in
15:23 61 °F 50 °F 30.2 in WNW 9.8 mph 9.8 mph 66 % 0 in
15:28 61 °F 50 °F 30.2 in WNW 4.9 mph 9.8 mph 66 % 0 in
15:34 61 °F 50 °F 30.2 in NNW 4 mph 7.2 mph 66 % 0 in
15:39 61 °F 50 °F 30.2 in WSW 2 mph 8.7 mph 66 % 0 in
15:44 61.9 °F 50 °F 30.2 in WNW 3.4 mph 8.7 mph 65 % 0 in
15:49 61.9 °F 50 °F 30.2 in WNW 2.5 mph 6.5 mph 65 % 0 in
15:54 61.9 °F 50 °F 30.2 in West 3.8 mph 6.5 mph 65 % 0 in
15:59 61.9 °F 50 °F 30.2 in NNE 7.8 mph 7.8 mph 65 % 0 in
16:04 63.3 °F 48.2 °F 30.2 in WNW 6 mph 7.8 mph 59 % 0 in
16:09 62.8 °F 48.2 °F 30.2 in WNW 3.6 mph 7.8 mph 59 % 0 in
16:14 62.8 °F 48.2 °F 30.2 in Calm   6 mph 59 % 0 in
16:19 62.8 °F 48.2 °F 30.2 in WNW 2.5 mph 2.7 mph 59 % 0 in
16:24 62.4 °F 50 °F 30.2 in West 3.6 mph 3.6 mph 63 % 0 in
16:29 61.3 °F 48.2 °F 30.2 in NW 2.9 mph 3.6 mph 62 % 0 in
16:34 61.7 °F 50 °F 30.2 in NNE 6.5 mph 6.5 mph 64 % 0 in
16:39 63.3 °F 50 °F 30.2 in WNW 2.9 mph 6.5 mph 62 % 0 in
16:44 63.3 °F 50 °F 30.2 in North 3.4 mph 6.5 mph 62 % 0 in
16:49 64.2 °F 51.8 °F 30.2 in WSW 2 mph 5.8 mph 63 % 0 in
16:54 64.9 °F 51.8 °F 30.2 in WSW 2 mph 5.8 mph 61 % 0 in
16:56 64.9 °F 51.8 °F 30.2 in NNE 6.3 mph 6.3 mph 61 % 0 in
17:01 64 °F 48.2 °F 30.2 in WNW 6.5 mph 6.5 mph 58 % 0 in
17:06 64 °F 48.2 °F 30.2 in NW 5.4 mph 6.5 mph 58 % 0 in
17:11 64 °F 48.2 °F 30.2 in NNW 3.8 mph 6.5 mph 58 % 0 in
17:16 64 °F 48.2 °F 30.2 in NNW 4 mph 7.2 mph 58 % 0 in
17:21 64.2 °F 50 °F 30.2 in NNE 7.6 mph 7.6 mph 58 % 0 in
17:26 63.7 °F 48.2 °F 30.2 in NW 6 mph 7.6 mph 57 % 0 in
17:31 63.7 °F 48.2 °F 30.2 in NNW 0.9 mph 7.6 mph 57 % 0 in
17:36 63.7 °F 48.2 °F 30.2 in Calm   6 mph 57 % 0 in
17:41 63.1 °F 48.2 °F 30.2 in WNW 2.5 mph 4.9 mph 58 % 0 in
17:46 63 °F 48.2 °F 30.2 in NW 6.9 mph 6.9 mph 59 % 0 in
17:51 62.8 °F 48.2 °F 30.2 in NNW 3.1 mph 6.9 mph 59 % 0 in
17:56 62.6 °F 48.2 °F 30.2 in NNW 1.6 mph 5.4 mph 60 % 0 in
18:01 62.4 °F 48.2 °F 30.2 in Calm   2.9 mph 59 % 0 in
18:06 62.2 °F 48.2 °F 30.2 in West 2.7 mph 6 mph 60 % 0 in
18:11 61.5 °F 48.2 °F 30.2 in North 2.7 mph 6 mph 60 % 0 in
18:16 61.5 °F 48.2 °F 30.2 in Calm   4 mph 60 % 0 in
18:21 61.5 °F 48.2 °F 30.2 in Calm   3.4 mph 60 % 0 in
18:26 59.9 °F 48.2 °F 30.2 in Calm   3.4 mph 63 % 0 in
18:31 59.9 °F 48.2 °F 30.2 in Calm     63 % 0 in
18:52 58.3 °F 48.2 °F 30.2 in Calm   1.6 mph 67 % 0 in
18:57 57.7 °F 48.2 °F 30.2 in Calm   1.6 mph 68 % 0 in
19:02 57.7 °F 48.2 °F 30.2 in Calm     68 % 0 in
19:07 56.8 °F 48.2 °F 30.2 in Calm   3.1 mph 70 % 0 in
19:12 56.5 °F 48.2 °F 30.2 in Calm   3.1 mph 71 % 0 in
19:17 56.5 °F 48.2 °F 30.2 in Calm   3.1 mph 71 % 0 in
19:22 56.5 °F 48.2 °F 30.2 in Calm     71 % 0 in
19:27 56.5 °F 48.2 °F 30.2 in WNW 2.5 mph 2.5 mph 71 % 0 in
19:32 55.2 °F 48.2 °F 30.2 in Calm   2.7 mph 74 % 0 in
19:37 55.2 °F 48.2 °F 30.2 in Calm   2.7 mph 74 % 0 in
19:42 54.5 °F 48.2 °F 30.2 in Calm     75 % 0 in
19:47 54.5 °F 48.2 °F 30.2 in Calm     75 % 0 in
19:52 53.8 °F 48.2 °F 30.2 in Calm     78 % 0 in
19:57 53.8 °F 48.2 °F 30.2 in Calm     78 % 0 in
20:02 53.8 °F 48.2 °F 30.3 in Calm     78 % 0 in
20:07 53.6 °F 48.2 °F 30.3 in Calm     81 % 0 in
20:08 53.6 °F 48.2 °F 30.3 in Calm     81 % 0 in
20:13 53.6 °F 48.2 °F 30.3 in Calm   3.1 mph 81 % 0 in
20:18 53.2 °F 48.2 °F 30.3 in Calm   3.1 mph 83 % 0 in
20:23 53.2 °F 48.2 °F 30.3 in Calm     83 % 0 in
20:28 53.2 °F 48.2 °F 30.3 in Calm     83 % 0 in
20:33 53.2 °F 48.2 °F 30.3 in Calm     83 % 0 in
20:38 53.2 °F 48.2 °F 30.3 in Calm     83 % 0 in
20:43 53.2 °F 48.2 °F 30.3 in Calm     83 % 0 in
20:48 53.2 °F 48.2 °F 30.3 in Calm     83 % 0 in
20:53 53.2 °F 48.2 °F 30.3 in Calm     83 % 0 in
20:58 52 °F 48.2 °F 30.3 in Calm     85 % 0 in
21:03 52 °F 48.2 °F 30.3 in Calm     85 % 0 in
21:08 52 °F 48.2 °F 30.3 in Calm     85 % 0 in
21:13 52 °F 48.2 °F 30.3 in Calm     85 % 0 in
21:18 52 °F 48.2 °F 30.3 in Calm   3.1 mph 85 % 0 in
21:23 52 °F 48.2 °F 30.3 in Calm   3.1 mph 85 % 0 in
21:28 52 °F 48.2 °F 30.3 in Calm     85 % 0 in
21:33 52 °F 48.2 °F 30.3 in Calm     85 % 0 in
21:38 52 °F 48.2 °F 30.3 in Calm   2.5 mph 85 % 0 in
21:43 52 °F 48.2 °F 30.3 in Calm   2.5 mph 85 % 0 in
21:48 50.7 °F 48.2 °F 30.3 in Calm     87 % 0 in
21:53 50.7 °F 48.2 °F 30.3 in West 0.9 mph 3.1 mph 87 % 0 in
21:59 50.7 °F 48.2 °F 30.3 in Calm   3.1 mph 87 % 0 in
22:04 50.7 °F 48.2 °F 30.3 in Calm     87 % 0 in
22:09 50.4 °F 48.2 °F 30.3 in Calm     89 % 0 in
22:14 50.4 °F 48.2 °F 30.3 in Calm     89 % 0 in
22:19 50.4 °F 48.2 °F 30.3 in Calm     89 % 0 in
22:24 50.4 °F 48.2 °F 30.3 in WSW 1.1 mph 1.1 mph 89 % 0 in
22:29 50.4 °F 48.2 °F 30.3 in Calm   1.1 mph 89 % 0 in
22:34 50.4 °F 48.2 °F 30.3 in Calm   1.1 mph 89 % 0 in
22:39 50.4 °F 48.2 °F 30.3 in Calm     89 % 0 in
22:49 50.4 °F 48.2 °F 30.3 in Calm   0.9 mph 89 % 0 in
22:54 50.4 °F 48.2 °F 30.3 in Calm   2 mph 89 % 0 in
22:59 50.4 °F 48.2 °F 30.3 in Calm   2 mph 89 % 0 in
23:04 50.4 °F 48.2 °F 30.3 in Calm     89 % 0 in
23:09 50.4 °F 48.2 °F 30.3 in West 3.6 mph 3.6 mph 89 % 0 in
23:14 50.4 °F 48.2 °F 30.3 in West 3.6 mph 3.6 mph 89 % 0 in
23:19 50.4 °F 48.2 °F 30.3 in Calm   3.6 mph 89 % 0 in
23:24 50.7 °F 48.2 °F 30.3 in Calm   2.7 mph 92 % 0 in
23:29 50.7 °F 48.2 °F 30.3 in West 2.9 mph 2.9 mph 92 % 0 in
23:34 50.7 °F 48.2 °F 30.3 in Calm   3.1 mph 92 % 0 in
23:39 50.7 °F 48.2 °F 30.3 in Calm   3.1 mph 92 % 0 in
23:44 50.7 °F 48.2 °F 30.3 in Calm     92 % 0 in
23:49 50.5 °F 48.2 °F 30.3 in Calm     93 % 0 in
23:54 50.7 °F 48.2 °F 30.3 in Calm     94 % 0 in
23:59 50.7 °F 48.2 °F 30.3 in Calm     94 % 0 in
Le Gheer Warneton
Courtoisie de Weather Underground - 2.25 mb

Mise a jour : 16-12-17 15:46:11
Généré par Cumulus 1.9.4 (1099)